Ahsahka, ID (83520)

8:50 PM PST on February 25, 2017 (GMT -0800)
MDNFI1 | | Change Station
Active Advisory: Winter Weather Advisory

Elev 1699 ft 46.62 °N, 116.22 °W | Updated 1 minute ago

Overcast
Overcast
32.0 °F
Feels Like 32.0 °F
N
3.0
Wind Variable Wind from SSW
Gusts 6.0 mph

Today
High -- | Low -- °F
--% Chance of Precip.
Yesterday
High -- | Low -- °F
Precip. -- in
Pressure 29.98 in
Visibility 10.0 miles
Clouds Overcast 6000 ft
Dew Point 27.0 °F
Humidity 81%
Rainfall 0.00 in
Snow Depth Not available.
6:31 AM 5:25 PM
Waning Crescent, 0% visible
METAR KLWS 260356Z 00000KT 10SM OVC060 02/M04 A2994 RMK AO2 SLP152 T00171039
Pressure 29.98 in
Visibility 10.0 miles
Clouds Overcast 6000 ft
Dew Point 27.0 °F
Humidity 81%
Rainfall 0.00 in
Snow Depth Not available.
6:31 AM 5:25 PM
Waning Crescent, 0% visible
METAR KLWS 260356Z 00000KT 10SM OVC060 02/M04 A2994 RMK AO2 SLP152 T00171039

Get Your Daily Forecast Email!

Thanks for signing up!

Be on the lookout for a verification email in your inbox.

You'll start receiving the daily forecast at 8 AM.

×

10-Day Weather Forecast

Almanac

Astronomy

Feb. 25, 2017 Rise Set
Actual Time
Civil Twilight
Nautical Twilight
Astronomical Twilight
Moon
Length of Visible Light
Length of Day
Tomorrow will be .
, % of the Moon is Illuminated

Today's Extremes

State Highs State Lows

Community

WunderPhotos

Upload Photos

1,962,540 photos uploaded!

WunderBlog® & News

Nearby

Air Quality

  Air Quality AQ Index Pollutant
Not available.

Snow Depth

Station Depth Elevation

Earthquake Activity

City Distance Mag. Time & Date
Minimum magnitude displayed is 2.5.

Coastal Water Temperatures

Place Temperature

Stations

Nearby Weather Stations

Station Location Temp. Windchill Dew Point Humidity Wind Precip. Elev Updated Type
                   

Watches & Warnings

Winter Weather Advisory
Issued: 6:52 PM PST Feb. 25, 2017 – National Weather Service

... Winter Weather Advisory remains in effect from 4 am to 10 PM
PST Sunday...

* impacts/timing: persistent light to moderate snow will impact
west central Idaho through late Sunday evening. Accumulating
snow will produce difficult driving conditions at times,
especially over whitebird and Greer grades.

* Snow accumulations: 2 to 4 inches on the Camas Prairie. 3 to 6
inches for White Bird grade and Greer grade.

* Locations impacted include: Camas Prairie, Grangeville and
vicinity, Greer grade, Highway 95 Slate Creek to Riggins, and
White Bird grade